sensor_id;sensor_type;location;lat;lon;timestamp;pressure;altitude;pressure_sealevel;temperature;humidity
28683;BME280;15862;43.062;25.626;2022-12-05T00:01:29;101309.50;;;6.75;100.00
28683;BME280;15862;43.062;25.626;2022-12-05T00:03:58;101309.50;;;6.75;100.00
28683;BME280;15862;43.062;25.626;2022-12-05T00:06:26;101307.91;;;6.72;100.00
28683;BME280;15862;43.062;25.626;2022-12-05T00:08:52;101303.44;;;6.77;100.00
28683;BME280;15862;43.062;25.626;2022-12-05T00:11:20;101306.56;;;6.85;100.00
28683;BME280;15862;43.062;25.626;2022-12-05T00:13:46;101309.44;;;6.76;100.00
28683;BME280;15862;43.062;25.626;2022-12-05T00:16:15;101309.06;;;6.86;100.00
28683;BME280;15862;43.062;25.626;2022-12-05T00:18:41;101307.84;;;6.74;100.00
28683;BME280;15862;43.062;25.626;2022-12-05T00:21:11;101299.25;;;6.75;100.00
28683;BME280;15862;43.062;25.626;2022-12-05T00:23:37;101317.78;;;6.82;100.00
28683;BME280;15862;43.062;25.626;2022-12-05T00:26:03;101314.59;;;6.76;100.00
28683;BME280;15862;43.062;25.626;2022-12-05T00:28:31;101317.72;;;6.84;100.00
28683;BME280;15862;43.062;25.626;2022-12-05T00:30:56;101317.78;;;6.82;100.00
28683;BME280;15862;43.062;25.626;2022-12-05T00:33:22;101305.03;;;6.80;100.00
28683;BME280;15862;43.062;25.626;2022-12-05T00:35:47;101314.88;;;6.91;100.00
28683;BME280;15862;43.062;25.626;2022-12-05T00:38:12;101308.84;;;6.92;100.00
28683;BME280;15862;43.062;25.626;2022-12-05T00:40:38;101315.56;;;6.96;100.00
28683;BME280;15862;43.062;25.626;2022-12-05T00:43:03;101301.34;;;6.86;100.00
28683;BME280;15862;43.062;25.626;2022-12-05T00:45:29;101307.06;;;6.94;100.00
28683;BME280;15862;43.062;25.626;2022-12-05T00:47:54;101310.50;;;6.93;100.00
28683;BME280;15862;43.062;25.626;2022-12-05T00:50:19;101304.50;;;6.94;100.00
28683;BME280;15862;43.062;25.626;2022-12-05T00:52:45;101302.16;;;6.88;100.00
28683;BME280;15862;43.062;25.626;2022-12-05T00:55:10;101296.06;;;6.91;100.00
28683;BME280;15862;43.062;25.626;2022-12-05T00:57:36;101308.00;;;6.92;100.00
28683;BME280;15862;43.062;25.626;2022-12-05T01:00:03;101300.47;;;6.87;100.00
28683;BME280;15862;43.062;25.626;2022-12-05T01:02:29;101307.00;;;6.96;100.00
28683;BME280;15862;43.062;25.626;2022-12-05T01:04:55;101281.84;;;6.82;100.00
28683;BME280;15862;43.062;25.626;2022-12-05T01:07:20;101297.84;;;6.89;100.00
28683;BME280;15862;43.062;25.626;2022-12-05T01:09:46;101286.03;;;6.83;100.00
28683;BME280;15862;43.062;25.626;2022-12-05T01:12:11;101304.56;;;6.93;100.00
28683;BME280;15862;43.062;25.626;2022-12-05T01:14:36;101303.59;;;6.95;100.00
28683;BME280;15862;43.062;25.626;2022-12-05T01:17:02;101305.94;;;6.79;100.00
28683;BME280;15862;43.062;25.626;2022-12-05T01:19:30;101311.06;;;6.79;100.00
28683;BME280;15862;43.062;25.626;2022-12-05T01:21:56;101308.63;;;6.76;100.00
28683;BME280;15862;43.062;25.626;2022-12-05T01:24:22;101313.56;;;6.80;100.00
28683;BME280;15862;43.062;25.626;2022-12-05T01:26:48;101304.38;;;6.75;100.00
28683;BME280;15862;43.062;25.626;2022-12-05T01:29:15;101313.03;;;6.72;100.00
28683;BME280;15862;43.062;25.626;2022-12-05T01:31:41;101295.06;;;6.72;100.00
28683;BME280;15862;43.062;25.626;2022-12-05T01:34:10;101294.09;;;6.75;100.00
28683;BME280;15862;43.062;25.626;2022-12-05T01:36:35;101290.53;;;6.79;100.00
28683;BME280;15862;43.062;25.626;2022-12-05T01:39:03;101295.66;;;6.79;100.00
28683;BME280;15862;43.062;25.626;2022-12-05T01:41:32;101291.38;;;6.79;100.00
28683;BME280;15862;43.062;25.626;2022-12-05T01:46:42;101274.31;;;6.77;100.00
28683;BME280;15862;43.062;25.626;2022-12-05T01:49:13;101253.84;;;6.75;100.00
28683;BME280;15862;43.062;25.626;2022-12-05T01:51:43;101283.28;;;6.89;100.00
28683;BME280;15862;43.062;25.626;2022-12-05T01:54:10;101271.34;;;6.88;100.00
28683;BME280;15862;43.062;25.626;2022-12-05T01:56:36;101272.00;;;6.93;100.00
28683;BME280;15862;43.062;25.626;2022-12-05T01:59:05;101270.53;;;6.86;100.00
28683;BME280;15862;43.062;25.626;2022-12-05T02:01:31;101269.66;;;6.87;100.00
28683;BME280;15862;43.062;25.626;2022-12-05T02:03:58;101260.44;;;6.82;100.00
28683;BME280;15862;43.062;25.626;2022-12-05T02:06:25;101255.22;;;6.83;100.00
28683;BME280;15862;43.062;25.626;2022-12-05T02:08:52;101257.47;;;6.92;100.00
28683;BME280;15862;43.062;25.626;2022-12-05T02:11:18;101259.09;;;6.95;100.00
28683;BME280;15862;43.062;25.626;2022-12-05T02:17:26;101258.88;;;7.01;100.00
28683;BME280;15862;43.062;25.626;2022-12-05T02:20:07;101252.00;;;7.01;100.00
28683;BME280;15862;43.062;25.626;2022-12-05T02:23:19;101248.78;;;6.96;100.00
28683;BME280;15862;43.062;25.626;2022-12-05T02:28:59;101249.91;;;6.89;100.00
28683;BME280;15862;43.062;25.626;2022-12-05T02:31:50;101250.78;;;6.88;100.00
28683;BME280;15862;43.062;25.626;2022-12-05T02:34:44;101255.28;;;6.82;100.00
28683;BME280;15862;43.062;25.626;2022-12-05T02:37:22;101252.56;;;6.64;100.00
28683;BME280;15862;43.062;25.626;2022-12-05T02:40:08;101260.88;;;6.70;100.00
28683;BME280;15862;43.062;25.626;2022-12-05T02:42:49;101248.66;;;6.77;100.00
28683;BME280;15862;43.062;25.626;2022-12-05T02:45:19;101264.97;;;6.76;100.00
28683;BME280;15862;43.062;25.626;2022-12-05T02:47:51;101255.59;;;6.75;100.00
28683;BME280;15862;43.062;25.626;2022-12-05T02:50:32;101259.38;;;6.65;100.00
28683;BME280;15862;43.062;25.626;2022-12-05T02:53:03;101263.72;;;6.63;100.00
28683;BME280;15862;43.062;25.626;2022-12-05T02:55:31;101270.31;;;6.70;100.00
28683;BME280;15862;43.062;25.626;2022-12-05T02:58:02;101253.56;;;6.60;100.00
28683;BME280;15862;43.062;25.626;2022-12-05T03:00:28;101260.25;;;6.64;100.00
28683;BME280;15862;43.062;25.626;2022-12-05T03:02:57;101260.47;;;6.58;100.00
28683;BME280;15862;43.062;25.626;2022-12-05T03:05:40;101261.38;;;6.57;100.00
28683;BME280;15862;43.062;25.626;2022-12-05T03:08:12;101262.16;;;6.59;100.00
28683;BME280;15862;43.062;25.626;2022-12-05T03:10:41;101267.00;;;6.66;100.00
28683;BME280;15862;43.062;25.626;2022-12-05T03:13:16;101259.28;;;6.68;100.00
28683;BME280;15862;43.062;25.626;2022-12-05T03:15:48;101253.63;;;6.81;100.00
28683;BME280;15862;43.062;25.626;2022-12-05T03:18:23;101257.94;;;6.81;100.00
28683;BME280;15862;43.062;25.626;2022-12-05T03:21:04;101247.03;;;6.74;100.00
28683;BME280;15862;43.062;25.626;2022-12-05T03:23:35;101251.75;;;6.62;100.00
28683;BME280;15862;43.062;25.626;2022-12-05T03:26:22;101263.28;;;6.52;100.00
28683;BME280;15862;43.062;25.626;2022-12-05T03:29:03;101265.91;;;6.50;100.00
28683;BME280;15862;43.062;25.626;2022-12-05T03:32:06;101257.41;;;6.48;100.00
28683;BME280;15862;43.062;25.626;2022-12-05T03:37:46;101278.22;;;6.64;100.00
28683;BME280;15862;43.062;25.626;2022-12-05T03:43:04;101275.88;;;6.58;100.00
28683;BME280;15862;43.062;25.626;2022-12-05T03:45:56;101267.97;;;6.64;100.00
28683;BME280;15862;43.062;25.626;2022-12-05T03:50:57;101272.88;;;6.70;100.00
28683;BME280;15862;43.062;25.626;2022-12-05T03:53:30;101277.03;;;6.74;100.00
28683;BME280;15862;43.062;25.626;2022-12-05T03:56:06;101276.78;;;6.80;100.00
28683;BME280;15862;43.062;25.626;2022-12-05T03:58:43;101271.56;;;6.82;100.00
28683;BME280;15862;43.062;25.626;2022-12-05T04:01:12;101278.25;;;6.86;100.00
28683;BME280;15862;43.062;25.626;2022-12-05T04:03:44;101273.44;;;6.78;100.00
28683;BME280;15862;43.062;25.626;2022-12-05T04:06:15;101278.13;;;6.67;100.00
28683;BME280;15862;43.062;25.626;2022-12-05T04:09:10;101286.22;;;6.56;100.00
28683;BME280;15862;43.062;25.626;2022-12-05T04:11:42;101277.63;;;6.57;100.00
28683;BME280;15862;43.062;25.626;2022-12-05T04:14:15;101284.59;;;6.54;100.00
28683;BME280;15862;43.062;25.626;2022-12-05T04:16:49;101281.25;;;6.52;100.00
28683;BME280;15862;43.062;25.626;2022-12-05T04:22:15;101275.88;;;6.58;100.00
28683;BME280;15862;43.062;25.626;2022-12-05T04:24:41;101256.09;;;6.37;100.00
28683;BME280;15862;43.062;25.626;2022-12-05T04:30:02;101252.66;;;6.38;100.00
28683;BME280;15862;43.062;25.626;2022-12-05T04:32:38;101265.09;;;6.48;100.00
28683;BME280;15862;43.062;25.626;2022-12-05T04:35:16;101258.78;;;6.34;100.00
28683;BME280;15862;43.062;25.626;2022-12-05T04:37:46;101280.00;;;6.39;100.00
28683;BME280;15862;43.062;25.626;2022-12-05T04:40:21;101266.38;;;6.37;100.00
28683;BME280;15862;43.062;25.626;2022-12-05T04:42:48;101274.66;;;6.45;100.00
28683;BME280;15862;43.062;25.626;2022-12-05T04:45:17;101277.38;;;6.40;100.00
28683;BME280;15862;43.062;25.626;2022-12-05T04:47:48;101283.53;;;6.35;100.00
28683;BME280;15862;43.062;25.626;2022-12-05T04:50:16;101271.00;;;6.27;100.00
28683;BME280;15862;43.062;25.626;2022-12-05T04:52:46;101255.78;;;6.21;100.00
28683;BME280;15862;43.062;25.626;2022-12-05T04:55:15;101282.97;;;6.27;100.00
28683;BME280;15862;43.062;25.626;2022-12-05T05:00:16;101279.34;;;6.32;100.00
28683;BME280;15862;43.062;25.626;2022-12-05T05:02:46;101280.09;;;6.36;100.00
28683;BME280;15862;43.062;25.626;2022-12-05T05:05:15;101288.88;;;6.29;100.00
28683;BME280;15862;43.062;25.626;2022-12-05T05:07:53;101278.25;;;6.15;100.00
28683;BME280;15862;43.062;25.626;2022-12-05T05:10:24;101292.97;;;6.10;100.00
28683;BME280;15862;43.062;25.626;2022-12-05T05:12:51;101286.53;;;6.23;100.00
28683;BME280;15862;43.062;25.626;2022-12-05T05:15:16;101270.13;;;6.27;100.00
28683;BME280;15862;43.062;25.626;2022-12-05T05:17:42;101291.25;;;6.35;100.00
28683;BME280;15862;43.062;25.626;2022-12-05T05:20:07;101282.50;;;6.40;100.00
28683;BME280;15862;43.062;25.626;2022-12-05T05:22:52;101285.31;;;6.33;100.00
28683;BME280;15862;43.062;25.626;2022-12-05T05:25:19;101290.44;;;6.33;100.00
28683;BME280;15862;43.062;25.626;2022-12-05T05:27:53;101284.19;;;6.41;100.00
28683;BME280;15862;43.062;25.626;2022-12-05T05:30:19;101292.69;;;6.42;100.00
28683;BME280;15862;43.062;25.626;2022-12-05T05:32:45;101286.69;;;6.43;100.00
28683;BME280;15862;43.062;25.626;2022-12-05T05:35:12;101293.19;;;6.53;100.00
28683;BME280;15862;43.062;25.626;2022-12-05T05:37:38;101292.25;;;6.55;100.00
28683;BME280;15862;43.062;25.626;2022-12-05T05:40:06;101288.63;;;6.61;100.00
28683;BME280;15862;43.062;25.626;2022-12-05T05:42:32;101294.44;;;6.66;100.00
28683;BME280;15862;43.062;25.626;2022-12-05T05:44:57;101288.28;;;6.70;100.00
28683;BME280;15862;43.062;25.626;2022-12-05T05:47:23;101281.75;;;6.61;100.00
28683;BME280;15862;43.062;25.626;2022-12-05T05:49:48;101294.09;;;6.75;100.00
28683;BME280;15862;43.062;25.626;2022-12-05T05:52:13;101300.00;;;6.77;100.00
28683;BME280;15862;43.062;25.626;2022-12-05T05:54:39;101294.94;;;6.75;100.00
28683;BME280;15862;43.062;25.626;2022-12-05T05:57:05;101291.97;;;6.85;100.00
28683;BME280;15862;43.062;25.626;2022-12-05T05:59:30;101293.59;;;6.88;100.00
28683;BME280;15862;43.062;25.626;2022-12-05T06:01:56;101292.75;;;6.87;100.00
28683;BME280;15862;43.062;25.626;2022-12-05T06:04:21;101293.59;;;6.88;100.00
28683;BME280;15862;43.062;25.626;2022-12-05T06:06:46;101284.94;;;6.90;100.00
28683;BME280;15862;43.062;25.626;2022-12-05T06:09:12;101282.66;;;6.83;100.00
28683;BME280;15862;43.062;25.626;2022-12-05T06:11:37;101295.44;;;6.84;100.00
28683;BME280;15862;43.062;25.626;2022-12-05T06:14:03;101299.19;;;6.99;100.00
28683;BME280;15862;43.062;25.626;2022-12-05T06:16:30;101281.88;;;7.04;100.00
28683;BME280;15862;43.062;25.626;2022-12-05T06:18:56;101281.03;;;7.03;100.00
28683;BME280;15862;43.062;25.626;2022-12-05T06:21:22;101280.81;;;7.09;100.00
28683;BME280;15862;43.062;25.626;2022-12-05T06:23:48;101273.28;;;7.05;100.00
28683;BME280;15862;43.062;25.626;2022-12-05T06:26:16;101286.16;;;7.26;100.00
28683;BME280;15862;43.062;25.626;2022-12-05T06:28:43;101286.34;;;7.22;100.00
28683;BME280;15862;43.062;25.626;2022-12-05T06:31:14;101284.91;;;7.36;100.00
28683;BME280;15862;43.062;25.626;2022-12-05T06:33:41;101278.69;;;7.42;100.00
28683;BME280;15862;43.062;25.626;2022-12-05T06:36:09;101289.44;;;7.51;100.00
28683;BME280;15862;43.062;25.626;2022-12-05T06:38:34;101277.84;;;7.62;100.00
28683;BME280;15862;43.062;25.626;2022-12-05T06:41:07;101269.16;;;7.65;100.00
28683;BME280;15862;43.062;25.626;2022-12-05T06:43:33;101280.22;;;7.88;100.00
28683;BME280;15862;43.062;25.626;2022-12-05T06:46:03;101293.41;;;8.01;100.00
28683;BME280;15862;43.062;25.626;2022-12-05T06:48:29;101283.25;;;7.98;100.00
28683;BME280;15862;43.062;25.626;2022-12-05T06:50:54;101261.78;;;7.99;100.00
28683;BME280;15862;43.062;25.626;2022-12-05T06:53:20;101280.53;;;8.22;100.00
28683;BME280;15862;43.062;25.626;2022-12-05T06:55:56;101289.53;;;8.32;100.00
28683;BME280;15862;43.062;25.626;2022-12-05T06:58:22;101277.94;;;8.42;100.00
28683;BME280;15862;43.062;25.626;2022-12-05T07:00:48;101291.41;;;8.48;100.00
28683;BME280;15862;43.062;25.626;2022-12-05T07:03:32;101293.00;;;8.51;100.00
28683;BME280;15862;43.062;25.626;2022-12-05T07:06:01;101288.44;;;8.37;100.00
28683;BME280;15862;43.062;25.626;2022-12-05T07:08:27;101273.00;;;8.18;100.00
28683;BME280;15862;43.062;25.626;2022-12-05T07:10:53;101291.13;;;8.15;100.00
28683;BME280;15862;43.062;25.626;2022-12-05T07:13:19;101284.50;;;8.09;100.00
28683;BME280;15862;43.062;25.626;2022-12-05T07:15:48;101267.31;;;8.10;100.00
28683;BME280;15862;43.062;25.626;2022-12-05T07:18:15;101303.16;;;8.36;100.00
28683;BME280;15862;43.062;25.626;2022-12-05T07:20:42;101301.06;;;8.43;100.00
28683;BME280;15862;43.062;25.626;2022-12-05T07:23:07;101303.63;;;8.63;100.00
28683;BME280;15862;43.062;25.626;2022-12-05T07:25:33;101287.31;;;8.63;100.00
28683;BME280;15862;43.062;25.626;2022-12-05T07:27:58;101306.16;;;8.83;100.00
28683;BME280;15862;43.062;25.626;2022-12-05T07:30:24;101308.97;;;8.97;100.00
28683;BME280;15862;43.062;25.626;2022-12-05T07:32:49;101302.22;;;9.13;100.00
28683;BME280;15862;43.062;25.626;2022-12-05T07:35:15;101309.81;;;9.34;100.00
28683;BME280;15862;43.062;25.626;2022-12-05T07:37:40;101308.69;;;9.40;100.00
28683;BME280;15862;43.062;25.626;2022-12-05T07:40:06;101317.59;;;9.70;100.00
28683;BME280;15862;43.062;25.626;2022-12-05T07:42:32;101317.88;;;9.64;100.00
28683;BME280;15862;43.062;25.626;2022-12-05T07:44:57;101315.94;;;9.50;100.00
28683;BME280;15862;43.062;25.626;2022-12-05T07:47:23;101320.28;;;9.50;100.00
28683;BME280;15862;43.062;25.626;2022-12-05T07:49:48;101329.72;;;9.49;100.00
28683;BME280;15862;43.062;25.626;2022-12-05T07:52:14;101326.22;;;9.33;100.00
28683;BME280;15862;43.062;25.626;2022-12-05T07:54:39;101319.38;;;9.14;100.00
28683;BME280;15862;43.062;25.626;2022-12-05T07:57:05;101317.09;;;9.08;100.00
28683;BME280;15862;43.062;25.626;2022-12-05T07:59:30;101336.19;;;8.84;100.00
28683;BME280;15862;43.062;25.626;2022-12-05T08:01:55;101335.81;;;8.73;100.00
28683;BME280;15862;43.062;25.626;2022-12-05T08:04:21;101333.19;;;8.55;100.00
28683;BME280;15862;43.062;25.626;2022-12-05T08:06:46;101320.91;;;8.41;100.00
28683;BME280;15862;43.062;25.626;2022-12-05T08:09:12;101337.53;;;8.33;100.00
28683;BME280;15862;43.062;25.626;2022-12-05T08:11:37;101343.66;;;8.31;100.00
28683;BME280;15862;43.062;25.626;2022-12-05T08:14:04;101331.75;;;8.28;100.00
28683;BME280;15862;43.062;25.626;2022-12-05T08:16:31;101332.44;;;8.12;100.00
28683;BME280;15862;43.062;25.626;2022-12-05T08:18:59;101326.59;;;8.07;100.00
28683;BME280;15862;43.062;25.626;2022-12-05T08:21:26;101333.69;;;8.23;100.00
28683;BME280;15862;43.062;25.626;2022-12-05T08:23:52;101323.69;;;8.16;100.00
28683;BME280;15862;43.062;25.626;2022-12-05T08:26:29;101306.53;;;8.16;100.00
28683;BME280;15862;43.062;25.626;2022-12-05T08:29:00;101327.03;;;8.39;100.00
28683;BME280;15862;43.062;25.626;2022-12-05T08:31:28;101289.09;;;8.42;100.00
28683;BME280;15862;43.062;25.626;2022-12-05T08:33:56;101321.19;;;8.54;100.00
28683;BME280;15862;43.062;25.626;2022-12-05T08:36:21;101325.06;;;8.64;100.00
28683;BME280;15862;43.062;25.626;2022-12-05T08:38:47;101315.72;;;8.61;100.00
28683;BME280;15862;43.062;25.626;2022-12-05T08:41:14;101322.19;;;8.71;100.00
28683;BME280;15862;43.062;25.626;2022-12-05T08:43:41;101318.97;;;8.85;100.00
28683;BME280;15862;43.062;25.626;2022-12-05T08:46:07;101292.13;;;8.90;100.00
28683;BME280;15862;43.062;25.626;2022-12-05T08:48:33;101312.47;;;9.14;100.00
28683;BME280;15862;43.062;25.626;2022-12-05T08:51:03;101306.03;;;9.23;100.00
28683;BME280;15862;43.062;25.626;2022-12-05T08:53:28;101307.38;;;9.50;100.00
28683;BME280;15862;43.062;25.626;2022-12-05T08:55:54;101305.84;;;9.81;100.00
28683;BME280;15862;43.062;25.626;2022-12-05T08:58:19;101307.34;;;9.85;100.00
28683;BME280;15862;43.062;25.626;2022-12-05T09:00:45;101311.91;;;9.80;100.00
28683;BME280;15862;43.062;25.626;2022-12-05T09:03:10;101304.94;;;9.82;100.00
28683;BME280;15862;43.062;25.626;2022-12-05T09:05:36;101302.53;;;9.61;100.00
28683;BME280;15862;43.062;25.626;2022-12-05T09:08:02;101296.41;;;9.45;100.00
28683;BME280;15862;43.062;25.626;2022-12-05T09:10:28;101298.66;;;9.34;100.00
28683;BME280;15862;43.062;25.626;2022-12-05T09:12:54;101279.31;;;9.07;100.00
28683;BME280;15862;43.062;25.626;2022-12-05T09:15:19;101285.22;;;9.09;100.00
28683;BME280;15862;43.062;25.626;2022-12-05T09:17:45;101289.63;;;9.25;100.00
28683;BME280;15862;43.062;25.626;2022-12-05T09:20:11;101285.84;;;9.32;100.00
28683;BME280;15862;43.062;25.626;2022-12-05T09:22:38;101277.22;;;9.33;100.00
28683;BME280;15862;43.062;25.626;2022-12-05T09:25:05;101276.75;;;9.42;100.00
28683;BME280;15862;43.062;25.626;2022-12-05T09:27:31;101267.59;;;9.37;100.00
28683;BME280;15862;43.062;25.626;2022-12-05T09:29:56;101263.75;;;9.27;100.00
28683;BME280;15862;43.062;25.626;2022-12-05T09:32:21;101263.88;;;9.42;100.00
28683;BME280;15862;43.062;25.626;2022-12-05T09:34:47;101266.88;;;9.52;100.00
28683;BME280;15862;43.062;25.626;2022-12-05T09:37:12;101252.78;;;9.59;100.00
28683;BME280;15862;43.062;25.626;2022-12-05T09:39:38;101260.81;;;9.70;100.00
28683;BME280;15862;43.062;25.626;2022-12-05T09:50:49;101225.47;;;9.88;100.00
28683;BME280;15862;43.062;25.626;2022-12-05T09:55:46;101202.41;;;9.86;100.00
28683;BME280;15862;43.062;25.626;2022-12-05T10:01:26;101223.09;;;10.02;100.00
28683;BME280;15862;43.062;25.626;2022-12-05T10:06:39;101222.03;;;10.39;100.00
28683;BME280;15862;43.062;25.626;2022-12-05T10:11:58;101215.50;;;10.64;100.00
28683;BME280;15862;43.062;25.626;2022-12-05T10:14:56;101210.81;;;11.03;100.00
28683;BME280;15862;43.062;25.626;2022-12-05T10:17:34;101207.88;;;11.09;100.00
28683;BME280;15862;43.062;25.626;2022-12-05T10:20:04;101212.28;;;11.07;100.00
28683;BME280;15862;43.062;25.626;2022-12-05T10:25:04;101222.59;;;10.76;100.00
28683;BME280;15862;43.062;25.626;2022-12-05T10:27:41;101211.81;;;10.53;100.00
28683;BME280;15862;43.062;25.626;2022-12-05T10:30:20;101216.06;;;10.38;100.00
28683;BME280;15862;43.062;25.626;2022-12-05T10:33:00;101213.41;;;10.23;100.00
28683;BME280;15862;43.062;25.626;2022-12-05T10:35:34;101206.81;;;10.17;100.00
28683;BME280;15862;43.062;25.626;2022-12-05T10:38:30;101208.25;;;9.89;100.00
28683;BME280;15862;43.062;25.626;2022-12-05T10:41:03;101189.81;;;9.80;100.00
28683;BME280;15862;43.062;25.626;2022-12-05T10:43:32;101207.31;;;9.56;100.00
28683;BME280;15862;43.062;25.626;2022-12-05T10:45:58;101202.78;;;9.26;100.00
28683;BME280;15862;43.062;25.626;2022-12-05T10:48:26;101202.56;;;9.30;100.00
28683;BME280;15862;43.062;25.626;2022-12-05T10:50:54;101205.72;;;9.37;100.00
28683;BME280;15862;43.062;25.626;2022-12-05T10:53:24;101205.97;;;9.31;100.00
28683;BME280;15862;43.062;25.626;2022-12-05T10:55:50;101194.44;;;9.21;100.00
28683;BME280;15862;43.062;25.626;2022-12-05T10:58:19;101198.50;;;9.08;100.00
28683;BME280;15862;43.062;25.626;2022-12-05T11:00:52;101193.78;;;8.99;100.00
28683;BME280;15862;43.062;25.626;2022-12-05T11:03:26;101172.47;;;8.96;100.00
28683;BME280;15862;43.062;25.626;2022-12-05T11:05:55;101195.72;;;8.94;100.00
28683;BME280;15862;43.062;25.626;2022-12-05T11:08:29;101192.00;;;8.83;100.00
28683;BME280;15862;43.062;25.626;2022-12-05T11:11:04;101188.13;;;8.91;100.00
28683;BME280;15862;43.062;25.626;2022-12-05T11:13:32;101191.94;;;9.01;100.00
28683;BME280;15862;43.062;25.626;2022-12-05T11:15:59;101183.41;;;8.82;100.00
28683;BME280;15862;43.062;25.626;2022-12-05T11:18:32;101192.81;;;8.83;100.00
28683;BME280;15862;43.062;25.626;2022-12-05T11:21:12;101186.66;;;8.86;100.00
28683;BME280;15862;43.062;25.626;2022-12-05T11:23:38;101186.66;;;8.86;100.00
28683;BME280;15862;43.062;25.626;2022-12-05T11:26:35;101169.50;;;8.86;100.00
28683;BME280;15862;43.062;25.626;2022-12-05T11:29:03;101182.75;;;9.14;100.00
28683;BME280;15862;43.062;25.626;2022-12-05T11:31:30;101189.59;;;9.15;100.00
28683;BME280;15862;43.062;25.626;2022-12-05T11:34:19;101191.09;;;9.19;100.00
28683;BME280;15862;43.062;25.626;2022-12-05T11:36:50;101186.53;;;9.07;100.00
28683;BME280;15862;43.062;25.626;2022-12-05T11:39:17;101180.91;;;9.16;100.00
28683;BME280;15862;43.062;25.626;2022-12-05T11:41:58;101186.28;;;9.30;100.00
28683;BME280;15862;43.062;25.626;2022-12-05T11:55:55;101164.47;;;9.71;100.00
28683;BME280;15862;43.062;25.626;2022-12-05T12:11:51;101150.38;;;10.42;100.00
28683;BME280;15862;43.062;25.626;2022-12-05T12:14:33;101151.66;;;10.66;100.00
28683;BME280;15862;43.062;25.626;2022-12-05T12:17:20;101128.75;;;10.60;100.00
28683;BME280;15862;43.062;25.626;2022-12-05T12:22:45;101150.34;;;10.59;100.00
28683;BME280;15862;43.062;25.626;2022-12-05T12:28:23;101142.47;;;10.45;100.00
28683;BME280;15862;43.062;25.626;2022-12-05T12:36:24;101125.78;;;10.20;100.00
28683;BME280;15862;43.062;25.626;2022-12-05T12:39:02;101126.34;;;10.09;100.00
28683;BME280;15862;43.062;25.626;2022-12-05T12:47:02;101123.81;;;10.08;100.00
28683;BME280;15862;43.062;25.626;2022-12-05T12:52:10;101097.50;;;10.01;100.00
28683;BME280;15862;43.062;25.626;2022-12-05T12:54:57;101113.88;;;10.17;100.00
28683;BME280;15862;43.062;25.626;2022-12-05T13:00:22;101111.03;;;10.22;100.00
28683;BME280;15862;43.062;25.626;2022-12-05T13:03:26;101113.03;;;10.32;100.00
28683;BME280;15862;43.062;25.626;2022-12-05T13:06:03;101123.53;;;10.29;100.00
28683;BME280;15862;43.062;25.626;2022-12-05T13:08:46;101097.03;;;10.26;100.00
28683;BME280;15862;43.062;25.626;2022-12-05T13:11:15;101108.47;;;10.37;100.00
28683;BME280;15862;43.062;25.626;2022-12-05T13:13:46;101113.06;;;10.48;100.00
28683;BME280;15862;43.062;25.626;2022-12-05T13:16:22;101110.41;;;10.65;100.00
28683;BME280;15862;43.062;25.626;2022-12-05T13:18:49;101105.97;;;10.51;100.00
28683;BME280;15862;43.062;25.626;2022-12-05T13:21:15;101103.75;;;10.45;100.00
28683;BME280;15862;43.062;25.626;2022-12-05T13:23:48;101086.84;;;10.07;100.00
28683;BME280;15862;43.062;25.626;2022-12-05T13:26:14;101099.75;;;9.90;100.00
28683;BME280;15862;43.062;25.626;2022-12-05T13:29:01;101100.81;;;9.54;100.00
28683;BME280;15862;43.062;25.626;2022-12-05T13:34:00;101090.09;;;9.45;100.00
28683;BME280;15862;43.062;25.626;2022-12-05T13:36:26;101088.97;;;9.50;100.00
28683;BME280;15862;43.062;25.626;2022-12-05T13:41:57;101095.88;;;9.33;100.00
28683;BME280;15862;43.062;25.626;2022-12-05T13:44:48;101106.03;;;9.36;100.00
28683;BME280;15862;43.062;25.626;2022-12-05T13:50:43;101090.66;;;9.17;100.00
28683;BME280;15862;43.062;25.626;2022-12-05T13:53:34;101103.50;;;9.01;100.00
28683;BME280;15862;43.062;25.626;2022-12-05T13:56:50;101100.44;;;8.93;100.00
28683;BME280;15862;43.062;25.626;2022-12-05T13:58:56;101095.34;;;8.74;100.00
28683;BME280;15862;43.062;25.626;2022-12-05T14:09:30;101094.81;;;8.49;100.00
28683;BME280;15862;43.062;25.626;2022-12-05T14:19:59;101095.34;;;8.56;100.00
28683;BME280;15862;43.062;25.626;2022-12-05T14:25:23;101093.63;;;8.56;100.00
28683;BME280;15862;43.062;25.626;2022-12-05T14:33:44;101096.22;;;8.56;100.00
28683;BME280;15862;43.062;25.626;2022-12-05T14:36:16;101096.22;;;8.56;100.00
28683;BME280;15862;43.062;25.626;2022-12-05T14:38:43;101087.72;;;8.54;100.00
28683;BME280;15862;43.062;25.626;2022-12-05T14:41:23;101087.34;;;8.62;100.00
28683;BME280;15862;43.062;25.626;2022-12-05T14:43:55;101088.03;;;8.65;100.00
28683;BME280;15862;43.062;25.626;2022-12-05T14:46:27;101087.41;;;8.60;100.00
28683;BME280;15862;43.062;25.626;2022-12-05T14:48:53;101086.59;;;8.60;100.00
28683;BME280;15862;43.062;25.626;2022-12-05T14:54:11;101092.16;;;8.69;100.00
28683;BME280;15862;43.062;25.626;2022-12-05T14:57:02;101094.72;;;8.69;100.00
28683;BME280;15862;43.062;25.626;2022-12-05T15:01:58;101097.72;;;8.60;100.00
28683;BME280;15862;43.062;25.626;2022-12-05T15:04:49;101092.97;;;8.70;100.00
28683;BME280;15862;43.062;25.626;2022-12-05T15:07:19;101091.97;;;8.72;100.00
28683;BME280;15862;43.062;25.626;2022-12-05T15:09:54;101093.25;;;8.64;100.00